Time;durP1;ratioP1;P1;durP2;ratioP2;P2;SDS_P1;SDS_P2;PMS_P1;PMS_P2;Temp;Humidity;BMP_temperature;BMP_pressure;BME280_temperature;BME280_humidity;BME280_pressure;Samples;Min_cycle;Max_cycle;Signal;HPM_P1;HPM_P2
2021/04/24 00:01:07;;;;;;;9.40;8.07;;;;;;;;;;10316125;28;20144;-55
2021/04/24 00:06:05;;;;;;;14.27;8.00;;;;;;;;;;10315896;28;20072;-56
2021/04/24 00:11:03;;;;;;;16.77;10.48;;;;;;;;;;10315709;28;20048;-56
2021/04/24 00:16:00;;;;;;;17.02;10.18;;;;;;;;;;10321655;28;20438;-57
2021/04/24 00:20:57;;;;;;;14.75;10.30;;;;;;;;;;10324251;28;20533;-56
2021/04/24 00:25:56;;;;;;;11.05;8.50;;;;;;;;;;10324014;28;20627;-56
2021/04/24 00:30:54;;;;;;;10.57;7.38;;;;;;;;;;10324583;28;20501;-56
2021/04/24 00:35:52;;;;;;;9.35;6.32;;;;;;;;;;10324106;28;20134;-55
2021/04/24 00:40:49;;;;;;;7.50;6.70;;;;;;;;;;10321865;28;20627;-56
2021/04/24 00:45:48;;;;;;;8.60;6.43;;;;;;;;;;10323230;28;20045;-55
2021/04/24 00:50:45;;;;;;;16.88;7.25;;;;;;;;;;10323588;28;20045;-55
2021/04/24 00:55:42;;;;;;;9.13;7.00;;;;;;;;;;10323329;28;20041;-56
2021/04/24 01:00:40;;;;;;;7.40;6.22;;;;;;;;;;10322589;28;20300;-56
2021/04/24 01:05:39;;;;;;;8.88;6.32;;;;;;;;;;10322463;28;20052;-56
2021/04/24 01:10:38;;;;;;;9.52;6.45;;;;;;;;;;10322274;28;20047;-56
2021/04/24 01:15:36;;;;;;;21.85;10.75;;;;;;;;;;10322286;28;20052;-57
2021/04/24 01:20:34;;;;;;;22.63;20.33;;;;;;;;;;10322840;28;20531;-57
2021/04/24 01:25:34;;;;;;;10.82;7.40;;;;;;;;;;10322079;28;20082;-57
2021/04/24 01:30:32;;;;;;;14.05;12.52;;;;;;;;;;10322640;28;20047;-56
2021/04/24 01:35:30;;;;;;;11.60;7.63;;;;;;;;;;10322434;28;20402;-54
2021/04/24 01:40:28;;;;;;;8.85;7.57;;;;;;;;;;10321134;28;20462;-54
2021/04/24 01:45:26;;;;;;;9.05;8.15;;;;;;;;;;10322175;28;20083;-57
2021/04/24 01:50:24;;;;;;;12.70;7.63;;;;;;;;;;10321004;28;20052;-57
2021/04/24 01:55:22;;;;;;;13.23;9.45;;;;;;;;;;10321606;28;20072;-56
2021/04/24 02:00:22;;;;;;;12.77;8.10;;;;;;;;;;10320172;28;20498;-55
2021/04/24 02:05:21;;;;;;;9.52;7.85;;;;;;;;;;10319351;28;20052;-55
2021/04/24 02:10:18;;;;;;;9.30;7.75;;;;;;;;;;10321168;28;20075;-56
2021/04/24 02:15:16;;;;;;;14.38;12.95;;;;;;;;;;10320983;28;20086;-56
2021/04/24 02:20:14;;;;;;;13.32;11.93;;;;;;;;;;10320701;28;20498;-57
2021/04/24 02:25:14;;;;;;;11.25;8.10;;;;;;;;;;10319387;28;20044;-56
2021/04/24 02:30:12;;;;;;;13.13;8.43;;;;;;;;;;10320470;28;20055;-55
2021/04/24 02:35:10;;;;;;;13.07;8.70;;;;;;;;;;10319011;28;20052;-56
2021/04/24 02:40:09;;;;;;;10.15;7.78;;;;;;;;;;10317614;28;20044;-56
2021/04/24 02:45:09;;;;;;;9.68;8.60;;;;;;;;;;10319681;28;20049;-57
2021/04/24 02:50:10;;;;;;;10.30;8.55;;;;;;;;;;10319379;28;20049;-58
2021/04/24 02:55:09;;;;;;;9.27;8.10;;;;;;;;;;10318477;28;20053;-52
2021/04/24 03:00:07;;;;;;;11.38;7.60;;;;;;;;;;10317788;28;20076;-54
2021/04/24 03:05:09;;;;;;;11.57;8.23;;;;;;;;;;10318695;28;20076;-56
2021/04/24 03:10:07;;;;;;;13.65;9.18;;;;;;;;;;10318889;28;20550;-52
2021/04/24 03:15:06;;;;;;;9.20;7.30;;;;;;;;;;10318375;28;20213;-55
2021/04/24 03:20:04;;;;;;;10.82;8.45;;;;;;;;;;10318383;28;20209;-53
2021/04/24 03:25:02;;;;;;;12.63;8.13;;;;;;;;;;10318010;28;20048;-57
2021/04/24 03:30:00;;;;;;;12.18;8.15;;;;;;;;;;10316896;28;20045;-57
2021/04/24 03:34:57;;;;;;;11.73;7.88;;;;;;;;;;10317813;28;20048;-58
2021/04/24 03:39:54;;;;;;;10.32;9.07;;;;;;;;;;10317427;28;20048;-57
2021/04/24 03:44:53;;;;;;;14.15;8.05;;;;;;;;;;10316907;28;20521;-57
2021/04/24 03:49:50;;;;;;;11.70;7.65;;;;;;;;;;10317103;28;20071;-56
2021/04/24 03:54:47;;;;;;;9.65;7.55;;;;;;;;;;10317212;28;20087;-58
2021/04/24 03:59:44;;;;;;;15.70;10.15;;;;;;;;;;10316158;28;20059;-56
2021/04/24 04:04:43;;;;;;;13.07;9.40;;;;;;;;;;10316453;28;20187;-57
2021/04/24 04:09:41;;;;;;;17.65;9.43;;;;;;;;;;10316887;28;20053;-55
2021/04/24 04:14:38;;;;;;;12.70;7.95;;;;;;;;;;10317106;28;20051;-57
2021/04/24 04:19:35;;;;;;;9.02;7.80;;;;;;;;;;10316834;28;20041;-56
2021/04/24 04:24:33;;;;;;;17.00;11.50;;;;;;;;;;10316474;28;20469;-56
2021/04/24 04:29:32;;;;;;;14.05;11.35;;;;;;;;;;10316583;28;20052;-56
2021/04/24 04:34:29;;;;;;;43.78;35.38;;;;;;;;;;10316081;28;20072;-56
2021/04/24 04:39:27;;;;;;;36.63;32.70;;;;;;;;;;10315418;28;20049;-53
2021/04/24 04:44:25;;;;;;;17.33;14.73;;;;;;;;;;10313464;28;20064;-56
2021/04/24 04:49:22;;;;;;;16.85;14.40;;;;;;;;;;10316144;28;20080;-56
2021/04/24 04:54:20;;;;;;;18.70;13.43;;;;;;;;;;10316076;28;20040;-53
2021/04/24 04:59:17;;;;;;;30.80;27.45;;;;;;;;;;10313502;28;20080;-56
2021/04/24 05:04:16;;;;;;;52.50;43.63;;;;;;;;;;10322762;28;20505;-57
2021/04/24 05:09:13;;;;;;;25.48;22.75;;;;;;;;;;10322546;28;20445;-54
2021/04/24 05:14:10;;;;;;;18.27;14.73;;;;;;;;;;10322881;28;20076;-55
2021/04/24 05:19:08;;;;;;;17.65;14.35;;;;;;;;;;10322628;28;20059;-49
2021/04/24 05:24:06;;;;;;;21.67;16.15;;;;;;;;;;10322580;28;20083;-53
2021/04/24 05:29:04;;;;;;;19.02;15.25;;;;;;;;;;10322641;28;20060;-56
2021/04/24 05:34:01;;;;;;;28.42;21.42;;;;;;;;;;10322044;28;20040;-52
2021/04/24 05:38:58;;;;;;;25.83;21.50;;;;;;;;;;10321787;28;20036;-56
2021/04/24 05:43:57;;;;;;;23.33;17.80;;;;;;;;;;10321667;28;20093;-52
2021/04/24 05:48:55;;;;;;;20.52;16.63;;;;;;;;;;10321787;28;20051;-56
2021/04/24 05:53:53;;;;;;;26.98;22.00;;;;;;;;;;10319606;28;20057;-57
2021/04/24 05:58:50;;;;;;;21.98;19.67;;;;;;;;;;10320511;28;20433;-52
2021/04/24 06:03:52;;;;;;;24.25;18.60;;;;;;;;;;10323649;28;20079;-54
2021/04/24 06:08:50;;;;;;;26.40;20.45;;;;;;;;;;10321094;28;20074;-54
2021/04/24 06:13:48;;;;;;;30.13;20.60;;;;;;;;;;10320571;28;20041;-55
2021/04/24 06:18:46;;;;;;;22.63;20.27;;;;;;;;;;10320515;28;20071;-54
2021/04/24 06:23:44;;;;;;;29.67;21.35;;;;;;;;;;10319324;28;20079;-52
2021/04/24 06:28:42;;;;;;;22.95;20.00;;;;;;;;;;10320294;28;20450;-51
2021/04/24 06:33:39;;;;;;;23.88;20.38;;;;;;;;;;10319683;28;20041;-51
2021/04/24 06:38:37;;;;;;;21.85;18.38;;;;;;;;;;10333818;28;20051;-53
2021/04/24 06:43:35;;;;;;;26.98;20.95;;;;;;;;;;10360425;28;20071;-57
2021/04/24 06:48:32;;;;;;;27.58;21.50;;;;;;;;;;10360367;28;20040;-52
2021/04/24 06:53:29;;;;;;;28.85;24.45;;;;;;;;;;10360238;28;20071;-47
2021/04/24 06:58:27;;;;;;;41.90;29.73;;;;;;;;;;10359480;28;20056;-56
2021/04/24 07:03:25;;;;;;;32.80;25.48;;;;;;;;;;10354884;28;20083;-55
2021/04/24 07:08:22;;;;;;;31.05;25.02;;;;;;;;;;10343049;28;20075;-46
2021/04/24 07:13:20;;;;;;;32.63;25.85;;;;;;;;;;10318666;28;20083;-58
2021/04/24 07:18:17;;;;;;;31.65;23.90;;;;;;;;;;10335524;28;20072;-49
2021/04/24 07:23:15;;;;;;;35.55;29.50;;;;;;;;;;10340475;28;20072;-52
2021/04/24 07:28:13;;;;;;;28.95;23.65;;;;;;;;;;10358235;28;20087;-50
2021/04/24 07:33:10;;;;;;;41.45;33.15;;;;;;;;;;10358272;28;20047;-50
2021/04/24 07:38:07;;;;;;;33.47;26.38;;;;;;;;;;10344492;28;20071;-52
2021/04/24 07:43:06;;;;;;;30.92;23.95;;;;;;;;;;10331261;28;20072;-55
2021/04/24 07:48:04;;;;;;;33.42;26.83;;;;;;;;;;10343628;28;20082;-55
2021/04/24 07:53:02;;;;;;;27.95;20.50;;;;;;;;;;10353824;28;20067;-55
2021/04/24 07:57:59;;;;;;;37.72;29.75;;;;;;;;;;10354490;28;20051;-52
2021/04/24 08:02:58;;;;;;;30.92;27.60;;;;;;;;;;10357254;28;20079;-54
2021/04/24 08:07:56;;;;;;;28.20;23.52;;;;;;;;;;10357254;28;20044;-56
2021/04/24 08:12:53;;;;;;;32.05;24.67;;;;;;;;;;10357019;28;20052;-57
2021/04/24 08:17:50;;;;;;;30.35;23.80;;;;;;;;;;10356944;28;20122;-57
2021/04/24 08:22:49;;;;;;;30.27;23.52;;;;;;;;;;10356099;28;20067;-55
2021/04/24 08:27:46;;;;;;;33.40;26.58;;;;;;;;;;10357011;28;20072;-54
2021/04/24 08:32:44;;;;;;;30.17;23.98;;;;;;;;;;10356276;28;20072;-53
2021/04/24 08:37:43;;;;;;;27.73;23.52;;;;;;;;;;10357518;28;20071;-52
2021/04/24 08:42:41;;;;;;;38.95;29.88;;;;;;;;;;10364745;28;20082;-55
2021/04/24 08:47:41;;;;;;;30.27;24.05;;;;;;;;;;10364542;28;20544;-55
2021/04/24 08:52:39;;;;;;;35.97;25.65;;;;;;;;;;10364248;28;20551;-45
2021/04/24 08:57:37;;;;;;;33.78;24.55;;;;;;;;;;10363263;28;20076;-51
2021/04/24 09:02:36;;;;;;;26.35;22.45;;;;;;;;;;10364250;28;20078;-55
2021/04/24 09:07:33;;;;;;;29.70;22.88;;;;;;;;;;10355925;28;20064;-54
2021/04/24 09:12:37;;;;;;;27.52;22.50;;;;;;;;;;10362414;28;20044;-52
2021/04/24 09:17:49;;;;;;;67.40;54.65;;;;;;;;;;10362758;28;20040;-53
2021/04/24 09:22:56;;;;;;;40.97;31.30;;;;;;;;;;10363432;28;20486;-53
2021/04/24 09:27:53;;;;;;;30.60;23.42;;;;;;;;;;10363079;28;20063;-53
2021/04/24 09:32:52;;;;;;;28.30;22.75;;;;;;;;;;10363091;28;20044;-51
2021/04/24 09:37:59;;;;;;;33.55;27.15;;;;;;;;;;10362380;28;20048;-56
2021/04/24 09:43:00;;;;;;;37.22;29.33;;;;;;;;;;10357874;28;20086;-56
2021/04/24 09:47:59;;;;;;;29.02;24.63;;;;;;;;;;10357930;28;20075;-54
2021/04/24 09:53:11;;;;;;;28.60;22.83;;;;;;;;;;10358746;28;20083;-55
2021/04/24 09:58:12;;;;;;;;;;;;;;;;;;10357851;28;20123;-55
2021/04/24 10:03:10;;;;;;;29.33;24.15;;;;;;;;;;10359833;28;20136;-52
2021/04/24 10:08:18;;;;;;;30.45;25.20;;;;;;;;;;10359666;28;20078;-53
2021/04/24 10:13:15;;;;;;;30.30;24.10;;;;;;;;;;10361644;28;20059;-54
2021/04/24 10:18:14;;;;;;;34.50;26.70;;;;;;;;;;10361185;28;20040;-55
2021/04/24 10:23:13;;;;;;;32.78;27.05;;;;;;;;;;10361253;28;20079;-52
2021/04/24 10:28:10;;;;;;;29.42;24.30;;;;;;;;;;10360332;28;20493;-54
2021/04/24 10:33:08;;;;;;;28.88;22.30;;;;;;;;;;10360957;28;20409;-53
2021/04/24 10:38:07;;;;;;;26.75;22.25;;;;;;;;;;10360758;28;20047;-53
2021/04/24 10:43:04;;;;;;;40.13;30.65;;;;;;;;;;10360379;28;20080;-50
2021/04/24 10:48:02;;;;;;;33.10;28.02;;;;;;;;;;10360164;28;20075;-56
2021/04/24 10:53:14;;;;;;;31.65;24.30;;;;;;;;;;10360204;28;20048;-56
2021/04/24 10:58:15;;;;;;;25.67;21.95;;;;;;;;;;10358396;28;20068;-56
2021/04/24 11:03:32;;;;;;;25.25;22.30;;;;;;;;;;10359662;28;20106;-56
2021/04/24 11:08:30;;;;;;;28.80;21.75;;;;;;;;;;10360003;28;20101;-56
2021/04/24 11:13:29;;;;;;;24.38;20.63;;;;;;;;;;10359570;28;20071;-56
2021/04/24 11:18:27;;;;;;;22.70;20.40;;;;;;;;;;10359509;28;20044;-58
2021/04/24 11:23:45;;;;;;;26.05;22.27;;;;;;;;;;10359055;28;20071;-56
2021/04/24 11:29:13;;;;;;;25.85;21.13;;;;;;;;;;10359009;28;20040;-56
2021/04/24 11:34:22;;;;;;;28.02;23.00;;;;;;;;;;10280557;28;20091;-57
2021/04/24 11:39:19;;;;;;;29.17;23.60;;;;;;;;;;10358866;28;20899;-55
2021/04/24 11:44:44;;;;;;;28.33;25.10;;;;;;;;;;10358604;28;20150;-56
2021/04/24 11:49:51;;;;;;;34.28;28.83;;;;;;;;;;10321670;28;20083;-56
2021/04/24 11:54:52;;;;;;;21.15;18.95;;;;;;;;;;10358588;28;20056;-54
2021/04/24 11:59:49;;;;;;;22.33;19.80;;;;;;;;;;10357739;28;20067;-56
2021/04/24 12:04:49;;;;;;;23.08;20.63;;;;;;;;;;10356062;28;20048;-58
2021/04/24 12:09:49;;;;;;;24.75;22.10;;;;;;;;;;10357989;28;20055;-53
2021/04/24 12:14:46;;;;;;;26.25;21.15;;;;;;;;;;10358080;28;20401;-54
2021/04/24 12:19:44;;;;;;;24.38;18.10;;;;;;;;;;10357922;28;20512;-56
2021/04/24 12:24:54;;;;;;;23.60;17.50;;;;;;;;;;10357653;28;20102;-53
2021/04/24 12:29:52;;;;;;;23.42;17.27;;;;;;;;;;10357695;28;20424;-53
2021/04/24 12:34:50;;;;;;;24.02;18.75;;;;;;;;;;10357804;28;20049;-53
2021/04/24 12:40:00;;;;;;;19.65;17.55;;;;;;;;;;10357676;28;20055;-53
2021/04/24 12:44:59;;;;;;;26.73;19.23;;;;;;;;;;10357533;28;20074;-52
2021/04/24 12:49:56;;;;;;;28.88;22.13;;;;;;;;;;10357221;28;20051;-54
2021/04/24 12:55:04;;;;;;;26.52;18.83;;;;;;;;;;10357351;28;20071;-55
2021/04/24 13:00:04;;;;;;;25.23;16.75;;;;;;;;;;10355985;28;20052;-53
2021/04/24 13:05:02;;;;;;;19.67;17.58;;;;;;;;;;10356023;28;20071;-57
2021/04/24 13:09:59;;;;;;;23.92;17.85;;;;;;;;;;10356981;28;20508;-56
2021/04/24 13:14:56;;;;;;;21.80;18.70;;;;;;;;;;10356957;28;20044;-56
2021/04/24 13:19:56;;;;;;;21.92;17.52;;;;;;;;;;10356795;28;20044;-54
2021/04/24 13:24:53;;;;;;;19.65;17.55;;;;;;;;;;10363065;28;20500;-57
2021/04/24 13:29:50;;;;;;;24.25;19.85;;;;;;;;;;10363817;28;20454;-51
2021/04/24 13:34:49;;;;;;;52.88;44.80;;;;;;;;;;10360247;28;20067;-57
2021/04/24 13:39:48;;;;;;;24.00;21.25;;;;;;;;;;10362799;28;20080;-57
2021/04/24 13:44:46;;;;;;;26.38;23.50;;;;;;;;;;10362614;28;20075;-52
2021/04/24 13:49:44;;;;;;;18.60;16.27;;;;;;;;;;10363076;28;20048;-54
2021/04/24 13:54:41;;;;;;;22.02;19.05;;;;;;;;;;10361890;28;20080;-56
2021/04/24 13:59:39;;;;;;;33.97;27.13;;;;;;;;;;10361529;28;20044;-56
2021/04/24 14:04:38;;;;;;;21.50;18.88;;;;;;;;;;10362081;28;20086;-55
2021/04/24 14:09:36;;;;;;;43.85;28.13;;;;;;;;;;10361159;28;20051;-57
2021/04/24 14:14:33;;;;;;;23.73;17.73;;;;;;;;;;10358771;28;20076;-57
2021/04/24 14:19:32;;;;;;;20.90;17.58;;;;;;;;;;10361683;28;20083;-58
2021/04/24 14:24:29;;;;;;;47.63;32.90;;;;;;;;;;10360820;28;20076;-57
2021/04/24 14:29:27;;;;;;;46.55;35.58;;;;;;;;;;10361350;28;20040;-57
2021/04/24 14:34:24;;;;;;;35.05;25.48;;;;;;;;;;10360780;28;20084;-58
2021/04/24 14:39:22;;;;;;;46.83;33.95;;;;;;;;;;10339582;28;20507;-58
2021/04/24 14:44:20;;;;;;;62.28;42.47;;;;;;;;;;10336922;28;20475;-58
2021/04/24 14:49:17;;;;;;;122.15;75.55;;;;;;;;;;10350867;28;20533;-57
2021/04/24 14:54:15;;;;;;;86.38;51.40;;;;;;;;;;10357121;28;20078;-57
2021/04/24 14:59:14;;;;;;;67.82;45.75;;;;;;;;;;10357650;28;20044;-57
2021/04/24 15:04:11;;;;;;;46.70;29.65;;;;;;;;;;10357937;28;20476;-58
2021/04/24 15:09:10;;;;;;;52.10;33.38;;;;;;;;;;10342535;28;20462;-58
2021/04/24 15:14:08;;;;;;;46.03;31.30;;;;;;;;;;10356276;28;20079;-57
2021/04/24 15:19:06;;;;;;;34.63;26.83;;;;;;;;;;10356908;28;20520;-57
2021/04/24 15:24:05;;;;;;;75.50;45.42;;;;;;;;;;10357118;28;20071;-59
2021/04/24 15:29:02;;;;;;;120.35;65.18;;;;;;;;;;10358673;28;20052;-58
2021/04/24 15:34:00;;;;;;;41.20;27.63;;;;;;;;;;10347649;28;20528;-57
2021/04/24 15:39:00;;;;;;;38.38;27.65;;;;;;;;;;10353366;28;20040;-54
2021/04/24 15:43:57;;;;;;;53.35;33.92;;;;;;;;;;10332579;28;20075;-55
2021/04/24 15:48:55;;;;;;;46.67;32.28;;;;;;;;;;10328598;28;20079;-57
2021/04/24 15:53:52;;;;;;;64.10;41.17;;;;;;;;;;10320128;28;20072;-57
2021/04/24 15:58:52;;;;;;;52.25;34.97;;;;;;;;;;10344603;28;20070;-56
2021/04/24 16:03:50;;;;;;;33.35;25.25;;;;;;;;;;10357724;28;20047;-57
2021/04/24 16:08:48;;;;;;;23.52;21.00;;;;;;;;;;10356934;28;20044;-58
2021/04/24 16:13:45;;;;;;;28.35;21.38;;;;;;;;;;10351864;28;20485;-57
2021/04/24 16:18:44;;;;;;;27.73;21.65;;;;;;;;;;10323994;28;20193;-56
2021/04/24 16:23:41;;;;;;;26.98;21.23;;;;;;;;;;10332485;28;20474;-51
2021/04/24 16:28:39;;;;;;;30.15;23.08;;;;;;;;;;10348921;28;20391;-59
2021/04/24 16:33:36;;;;;;;148.95;122.95;;;;;;;;;;10319165;28;20076;-58
2021/04/24 16:38:34;;;;;;;37.88;25.50;;;;;;;;;;10325463;28;20075;-59
2021/04/24 16:43:36;;;;;;;49.35;32.10;;;;;;;;;;10321462;28;20078;-59
2021/04/24 16:48:34;;;;;;;59.63;45.75;;;;;;;;;;10333119;28;20047;-59
2021/04/24 16:53:32;;;;;;;50.90;35.92;;;;;;;;;;10356253;28;20052;-60
2021/04/24 16:58:30;;;;;;;64.25;44.33;;;;;;;;;;10360874;28;20473;-58
2021/04/24 17:03:27;;;;;;;40.88;31.25;;;;;;;;;;10364516;28;20076;-59
2021/04/24 17:08:25;;;;;;;45.42;34.70;;;;;;;;;;10364236;28;20044;-58
2021/04/24 17:13:22;;;;;;;48.75;33.90;;;;;;;;;;10364076;28;20055;-59
2021/04/24 17:18:21;;;;;;;35.28;27.38;;;;;;;;;;10363960;28;20063;-59
2021/04/24 17:23:18;;;;;;;42.55;29.60;;;;;;;;;;10363807;28;20075;-58
2021/04/24 17:28:15;;;;;;;56.30;43.97;;;;;;;;;;10363055;28;20047;-59
2021/04/24 17:33:13;;;;;;;38.90;31.98;;;;;;;;;;10363326;28;20404;-60
2021/04/24 17:38:11;;;;;;;45.85;34.03;;;;;;;;;;10363112;28;20390;-59
2021/04/24 17:43:09;;;;;;;38.05;31.27;;;;;;;;;;10363123;28;20521;-60
2021/04/24 17:48:06;;;;;;;41.72;32.22;;;;;;;;;;10361382;28;20044;-59
2021/04/24 17:53:04;;;;;;;50.67;40.72;;;;;;;;;;10362564;28;20497;-59
2021/04/24 17:58:02;;;;;;;31.50;24.35;;;;;;;;;;10361768;28;20314;-58
2021/04/24 18:02:59;;;;;;;62.38;44.78;;;;;;;;;;10362302;28;20516;-58
2021/04/24 18:07:57;;;;;;;48.65;41.10;;;;;;;;;;10361430;28;20044;-58
2021/04/24 18:12:54;;;;;;;46.35;32.00;;;;;;;;;;10361666;28;20056;-60
2021/04/24 18:17:53;;;;;;;28.92;25.83;;;;;;;;;;10361829;28;20059;-59
2021/04/24 18:22:50;;;;;;;45.15;33.67;;;;;;;;;;10361107;28;20052;-58
2021/04/24 18:27:49;;;;;;;30.73;23.50;;;;;;;;;;10361226;28;20044;-60
2021/04/24 18:32:47;;;;;;;26.67;22.13;;;;;;;;;;10361008;28;20058;-59
2021/04/24 18:37:46;;;;;;;23.08;19.83;;;;;;;;;;10360273;28;20044;-59
2021/04/24 18:42:43;;;;;;;26.60;21.77;;;;;;;;;;10360290;28;20048;-59
2021/04/24 18:47:41;;;;;;;27.80;22.95;;;;;;;;;;10360427;28;20468;-59
2021/04/24 18:52:43;;;;;;;24.52;18.90;;;;;;;;;;10359585;28;20048;-59
2021/04/24 18:57:41;;;;;;;28.17;20.38;;;;;;;;;;10359345;28;20523;-59
2021/04/24 19:02:39;;;;;;;26.08;19.27;;;;;;;;;;10360043;28;20050;-59
2021/04/24 19:07:37;;;;;;;24.13;19.10;;;;;;;;;;10359781;28;20048;-58
2021/04/24 19:12:34;;;;;;;27.13;21.13;;;;;;;;;;10359275;28;20082;-57
2021/04/24 19:17:32;;;;;;;32.72;27.35;;;;;;;;;;10359059;28;20071;-58
2021/04/24 19:22:30;;;;;;;49.35;38.25;;;;;;;;;;10357665;28;20048;-58
2021/04/24 19:27:27;;;;;;;49.78;36.25;;;;;;;;;;10358797;28;20087;-58
2021/04/24 19:32:24;;;;;;;48.90;34.60;;;;;;;;;;10358868;28;20396;-58
2021/04/24 19:37:23;;;;;;;42.38;31.40;;;;;;;;;;10358396;28;20512;-58
2021/04/24 19:42:20;;;;;;;37.28;30.02;;;;;;;;;;10358301;28;20472;-59
2021/04/24 19:47:18;;;;;;;56.78;43.45;;;;;;;;;;10358425;28;20086;-58
2021/04/24 19:52:15;;;;;;;74.18;49.25;;;;;;;;;;10357910;28;20184;-58
2021/04/24 19:57:14;;;;;;;81.22;56.13;;;;;;;;;;10357398;28;20044;-59
2021/04/24 20:02:11;;;;;;;75.95;53.03;;;;;;;;;;10357795;28;20051;-57
2021/04/24 20:07:09;;;;;;;56.53;38.78;;;;;;;;;;10356161;28;20056;-58
2021/04/24 20:12:07;;;;;;;39.72;30.13;;;;;;;;;;10357314;28;20413;-57
2021/04/24 20:17:05;;;;;;;34.90;28.95;;;;;;;;;;10357704;28;20067;-58
2021/04/24 20:22:03;;;;;;;35.65;27.10;;;;;;;;;;10357169;28;20048;-58
2021/04/24 20:27:01;;;;;;;38.92;28.50;;;;;;;;;;10356873;28;20079;-59
2021/04/24 20:31:58;;;;;;;39.53;29.90;;;;;;;;;;10361178;28;20040;-58
2021/04/24 20:36:57;;;;;;;29.17;20.50;;;;;;;;;;10365470;28;20040;-59
2021/04/24 20:41:54;;;;;;;21.48;17.65;;;;;;;;;;10365424;28;20040;-59
2021/04/24 20:46:51;;;;;;;19.17;17.05;;;;;;;;;;10364697;28;20088;-59
2021/04/24 20:51:49;;;;;;;14.98;13.00;;;;;;;;;;10365239;28;20052;-59
2021/04/24 20:56:48;;;;;;;15.25;12.77;;;;;;;;;;10364341;28;20079;-59
2021/04/24 21:01:46;;;;;;;28.83;23.77;;;;;;;;;;10364637;28;20040;-59
2021/04/24 21:06:43;;;;;;;31.15;23.85;;;;;;;;;;10364167;28;20076;-59
2021/04/24 21:11:40;;;;;;;37.15;26.88;;;;;;;;;;10364065;28;20488;-59
2021/04/24 21:16:39;;;;;;;39.38;28.45;;;;;;;;;;10364264;28;20094;-59
2021/04/24 21:21:36;;;;;;;47.03;32.10;;;;;;;;;;10363647;28;20047;-57
2021/04/24 21:26:34;;;;;;;51.28;33.22;;;;;;;;;;10363767;28;20092;-58
2021/04/24 21:31:32;;;;;;;37.40;29.88;;;;;;;;;;10363216;28;20051;-59
2021/04/24 21:36:30;;;;;;;28.17;22.55;;;;;;;;;;10363007;28;20079;-57
2021/04/24 21:41:27;;;;;;;21.88;17.95;;;;;;;;;;10362123;28;20083;-58
2021/04/24 21:46:25;;;;;;;19.83;17.67;;;;;;;;;;10362261;28;20079;-58
2021/04/24 21:51:22;;;;;;;20.73;16.35;;;;;;;;;;10361855;28;20516;-59
2021/04/24 21:56:22;;;;;;;19.50;15.65;;;;;;;;;;10361098;28;20079;-59
2021/04/24 22:01:22;;;;;;;22.63;18.05;;;;;;;;;;10361989;28;20508;-59
2021/04/24 22:06:19;;;;;;;17.77;14.43;;;;;;;;;;10360460;28;20691;-57
2021/04/24 22:11:17;;;;;;;28.45;21.55;;;;;;;;;;10361672;28;20048;-58
2021/04/24 22:16:15;;;;;;;24.70;18.02;;;;;;;;;;10361379;28;20059;-59
2021/04/24 22:21:12;;;;;;;22.55;14.75;;;;;;;;;;10361616;28;20048;-58
2021/04/24 22:26:10;;;;;;;16.48;14.77;;;;;;;;;;10360887;28;20083;-58
2021/04/24 22:31:07;;;;;;;16.83;13.88;;;;;;;;;;10360653;28;20413;-58
2021/04/24 22:36:06;;;;;;;16.02;12.48;;;;;;;;;;10361069;28;20056;-58
2021/04/24 22:41:03;;;;;;;14.43;12.70;;;;;;;;;;10360364;28;20114;-58
2021/04/24 22:46:01;;;;;;;17.42;13.88;;;;;;;;;;10359885;28;20079;-58
2021/04/24 22:51:00;;;;;;;16.52;13.32;;;;;;;;;;10359916;28;20436;-58
2021/04/24 22:55:58;;;;;;;16.65;14.05;;;;;;;;;;10359597;28;20048;-58
2021/04/24 23:00:55;;;;;;;23.42;13.20;;;;;;;;;;10359676;28;20051;-58
2021/04/24 23:05:53;;;;;;;17.30;14.05;;;;;;;;;;10359298;28;20313;-59
2021/04/24 23:10:50;;;;;;;16.42;14.00;;;;;;;;;;10359141;28;20036;-58
2021/04/24 23:15:48;;;;;;;20.58;12.93;;;;;;;;;;10359077;28;20040;-59
2021/04/24 23:20:45;;;;;;;16.15;12.30;;;;;;;;;;10358880;28;20067;-59
2021/04/24 23:25:43;;;;;;;16.15;13.25;;;;;;;;;;10358946;28;20086;-59
2021/04/24 23:30:40;;;;;;;13.65;11.98;;;;;;;;;;10358339;28;20087;-59
2021/04/24 23:35:38;;;;;;;16.65;11.55;;;;;;;;;;10356912;28;20414;-59
2021/04/24 23:40:35;;;;;;;10.77;9.75;;;;;;;;;;10358577;28;20055;-59
2021/04/24 23:45:33;;;;;;;13.88;11.02;;;;;;;;;;10358288;28;20087;-59
2021/04/24 23:50:30;;;;;;;25.10;17.92;;;;;;;;;;10357799;28;20047;-59
2021/04/24 23:55:28;;;;;;;10.90;9.38;;;;;;;;;;10358745;28;20457;-58
